Time;durP1;ratioP1;P1;durP2;ratioP2;P2;SDS_P1;SDS_P2;PMS_P1;PMS_P2;Temp;Humidity;BMP_temperature;BMP_pressure;BME280_temperature;BME280_humidity;BME280_pressure;Samples;Min_cycle;Max_cycle;Signal;HPM_P1;HPM_P2
2022/02/22 00:00:25;;;;;;;5.15;1.10;;;;;;;3.66;83.84;99021.09;10298214;28;20393;-71
2022/02/22 00:05:27;;;;;;;5.03;1.33;;;;;;;3.69;83.74;99027.97;10298738;28;20043;-72
2022/02/22 00:10:28;;;;;;;6.22;1.10;;;;;;;3.65;84.05;99041.91;10297938;28;20085;-72
2022/02/22 00:15:30;;;;;;;4.13;1.10;;;;;;;3.86;82.39;99043.25;10298596;28;20481;-71
2022/02/22 00:20:32;;;;;;;5.82;1.05;;;;;;;3.77;82.87;99059.88;10298196;28;20054;-72
2022/02/22 00:25:34;;;;;;;4.88;0.98;;;;;;;4.00;80.93;99054.22;10279524;28;20047;-70
2022/02/22 00:30:35;;;;;;;5.30;1.50;;;;;;;4.10;80.26;99052.25;10297584;28;20097;-72
2022/02/22 00:35:37;;;;;;;4.65;0.80;;;;;;;4.26;78.77;99064.06;10297783;28;20039;-72
2022/02/22 00:40:39;;;;;;;4.05;0.60;;;;;;;4.20;79.04;99064.19;10297020;28;20054;-72
2022/02/22 00:45:40;;;;;;;4.72;1.70;;;;;;;4.20;78.87;99075.44;10280302;28;20038;-72
2022/02/22 00:50:42;;;;;;;4.32;1.00;;;;;;;4.23;79.12;99070.16;10278923;28;20058;-72
2022/02/22 00:55:43;;;;;;;6.07;1.02;;;;;;;4.26;80.91;99092.69;10296715;28;20485;-72
2022/02/22 01:00:45;;;;;;;4.18;0.80;;;;;;;4.11;82.06;99083.44;10279374;28;20129;-71
2022/02/22 01:05:47;;;;;;;9.38;1.30;;;;;;;4.15;82.54;99102.44;10280320;28;20074;-71
2022/02/22 01:10:49;;;;;;;4.15;1.23;;;;;;;4.12;82.69;99107.69;10278824;28;20047;-72
2022/02/22 01:15:50;;;;;;;3.47;0.90;;;;;;;3.99;84.25;99115.75;10295453;28;20101;-71
2022/02/22 01:20:52;;;;;;;4.72;1.00;;;;;;;4.11;84.23;99132.00;10295650;28;20109;-71
2022/02/22 01:25:56;;;;;;;3.38;0.90;;;;;;;4.12;84.80;99129.38;10296748;28;20055;-71
2022/02/22 01:30:57;;;;;;;3.17;1.38;;;;;;;4.11;84.58;99145.84;10295994;28;20390;-72
2022/02/22 01:35:59;;;;;;;3.22;0.88;;;;;;;4.15;84.49;99144.91;10277503;28;20047;-71
2022/02/22 01:41:01;;;;;;;1.45;0.70;;;;;;;4.18;85.41;99147.44;10295998;28;20405;-71
2022/02/22 01:46:02;;;;;;;5.28;0.95;;;;;;;3.98;86.31;99173.84;10296104;28;20042;-72
2022/02/22 01:51:04;;;;;;;2.60;0.70;;;;;;;4.13;86.68;99177.03;10303363;28;20582;-70
2022/02/22 01:56:07;;;;;;;3.00;0.70;;;;;;;4.26;85.37;99187.19;10302556;28;20449;-71
2022/02/22 02:01:10;;;;;;;2.78;0.85;;;;;;;4.16;85.89;99206.47;10285021;28;20460;-73
2022/02/22 02:06:12;;;;;;;1.10;0.60;;;;;;;4.20;85.48;99194.22;10301947;28;20551;-72
2022/02/22 02:11:14;;;;;;;3.70;0.88;;;;;;;4.27;83.96;99188.03;10301740;28;20097;-72
2022/02/22 02:16:16;;;;;;;2.22;0.75;;;;;;;4.35;83.31;99196.53;10302670;28;20094;-72
2022/02/22 02:21:18;;;;;;;2.67;0.80;;;;;;;4.18;84.08;99198.63;10285180;28;20056;-72
2022/02/22 02:26:20;;;;;;;1.50;0.60;;;;;;;4.23;82.87;99197.63;10301780;28;20049;-72
2022/02/22 02:31:21;;;;;;;2.35;0.65;;;;;;;4.20;83.52;99209.84;10285385;28;20106;-72
2022/02/22 02:36:23;;;;;;;3.83;0.63;;;;;;;4.19;83.51;99205.53;10296743;23;20042;-72
2022/02/22 02:41:25;;;;;;;1.40;0.55;;;;;;;4.13;84.79;99210.84;10302532;28;20055;-70
2022/02/22 02:46:27;;;;;;;2.47;0.50;;;;;;;4.15;84.64;99199.53;10300848;28;20053;-70
2022/02/22 02:51:29;;;;;;;3.22;0.70;;;;;;;4.16;84.09;99218.59;10302455;28;20051;-71
2022/02/22 02:56:31;;;;;;;3.22;0.80;;;;;;;4.10;85.03;99210.91;10301213;28;20082;-72
2022/02/22 03:01:35;;;;;;;4.28;1.10;;;;;;;3.99;85.33;99214.56;10287241;28;20547;-71
2022/02/22 03:06:36;;;;;;;5.10;0.90;;;;;;;3.94;86.46;99218.13;10301694;28;20043;-72
2022/02/22 03:11:38;;;;;;;2.30;1.35;;;;;;;3.86;86.94;99218.28;10302084;28;20059;-72
2022/02/22 03:16:40;;;;;;;6.40;1.58;;;;;;;3.91;87.08;99239.84;10268768;28;20523;-72
2022/02/22 03:21:42;;;;;;;3.22;0.70;;;;;;;4.02;86.61;99244.84;10285890;28;20400;-71
2022/02/22 03:26:43;;;;;;;2.95;0.73;;;;;;;3.98;86.39;99249.25;10303036;28;20047;-71
2022/02/22 03:31:45;;;;;;;4.00;0.85;;;;;;;3.94;87.31;99264.91;10281899;28;20062;-71
2022/02/22 03:36:46;;;;;;;2.53;0.90;;;;;;;3.75;89.36;99286.03;10300330;28;20042;-72
2022/02/22 03:41:48;;;;;;;4.10;1.00;;;;;;;3.75;90.33;99303.38;10300174;28;20050;-72
2022/02/22 03:46:50;;;;;;;1.75;0.70;;;;;;;3.80;89.90;99296.34;10305447;28;20512;-71
2022/02/22 03:51:51;;;;;;;4.10;1.38;;;;;;;3.78;89.88;99292.94;10283987;28;20057;-72
2022/02/22 03:56:53;;;;;;;1.35;0.50;;;;;;;3.88;89.17;99304.91;10302087;28;20050;-72
2022/02/22 04:01:55;;;;;;;7.47;1.00;;;;;;;3.87;89.43;99325.72;10301825;28;20106;-72
2022/02/22 04:06:59;;;;;;;2.75;0.80;;;;;;;3.94;89.46;99333.41;10286292;28;20042;-72
2022/02/22 04:12:01;;;;;;;4.55;1.10;;;;;;;3.87;90.25;99349.97;10282783;28;20042;-72
2022/02/22 04:17:02;;;;;;;4.63;1.63;;;;;;;4.00;90.53;99361.91;10300475;28;20047;-72
2022/02/22 04:22:04;;;;;;;2.55;0.80;;;;;;;3.86;91.37;99378.63;10301076;28;20074;-73
2022/02/22 04:27:08;;;;;;;2.03;0.70;;;;;;;3.77;91.93;99379.59;10286403;28;20046;-72
2022/02/22 04:32:10;;;;;;;2.65;1.10;;;;;;;3.70;92.53;99407.41;10302170;28;20125;-72
2022/02/22 04:37:15;;;;;;;3.22;0.68;;;;;;;3.75;92.14;99409.94;10280380;28;20043;-72
2022/02/22 04:42:19;;;;;;;1.92;0.77;;;;;;;3.70;91.48;99416.94;10298561;28;20460;-72
2022/02/22 04:47:20;;;;;;;4.82;0.90;;;;;;;3.71;91.00;99439.47;10297737;28;20083;-72
2022/02/22 04:52:22;;;;;;;5.43;1.25;;;;;;;3.68;90.28;99434.31;10300609;28;20408;-71
2022/02/22 04:57:24;;;;;;;8.38;2.63;;;;;;;3.79;86.39;99445.41;10280489;28;20489;-72
2022/02/22 05:02:25;;;;;;;13.90;2.58;;;;;;;3.67;86.19;99456.84;10281512;28;20059;-71
2022/02/22 05:07:27;;;;;;;11.63;2.08;;;;;;;3.71;84.93;99463.72;10280944;28;20054;-71
2022/02/22 05:12:29;;;;;;;16.25;4.15;;;;;;;3.48;84.27;99477.00;10282216;28;20047;-71
2022/02/22 05:17:31;;;;;;;18.60;4.03;;;;;;;3.52;83.25;99480.44;10279579;28;20444;-70
2022/02/22 05:22:41;;;;;;;13.25;2.53;;;;;;;3.35;84.42;99498.81;10283101;28;20529;-71
2022/02/22 05:27:43;;;;;;;11.13;2.60;;;;;;;3.34;84.31;99514.41;10304003;28;20117;-71
2022/02/22 05:32:45;;;;;;;17.42;2.50;;;;;;;3.37;84.46;99533.44;10307598;28;20119;-71
2022/02/22 05:37:47;;;;;;;17.10;3.53;;;;;;;3.22;84.78;99536.19;10286692;28;20523;-71
2022/02/22 05:42:49;;;;;;;11.70;2.67;;;;;;;3.42;82.05;99556.78;10303669;28;20057;-71
2022/02/22 05:47:50;;;;;;;11.55;2.53;;;;;;;3.46;80.17;99587.03;10287195;28;20066;-71
2022/02/22 05:52:53;;;;;;;15.90;2.97;;;;;;;3.37;80.68;99587.13;10304824;28;20082;-71
2022/02/22 05:57:55;;;;;;;14.73;2.15;;;;;;;3.32;80.54;99594.09;10289143;28;20082;-71
2022/02/22 06:02:56;;;;;;;11.75;2.17;;;;;;;3.56;78.69;99603.41;10287734;28;20054;-72
2022/02/22 06:07:58;;;;;;;23.92;2.50;;;;;;;3.48;78.89;99625.13;10286881;28;20074;-72
2022/02/22 06:12:59;;;;;;;13.13;2.78;;;;;;;3.34;80.21;99639.97;10286332;28;20058;-71
2022/02/22 06:18:01;;;;;;;13.13;2.53;;;;;;;3.51;77.88;99634.63;10305877;28;20041;-71
2022/02/22 06:23:03;;;;;;;16.35;2.78;;;;;;;3.50;77.58;99662.34;10287003;28;20046;-72
2022/02/22 06:28:05;;;;;;;11.20;2.80;;;;;;;3.46;76.36;99665.00;10285073;28;20114;-72
2022/02/22 06:33:09;;;;;;;11.15;2.78;;;;;;;3.41;76.65;99669.34;10286887;28;20051;-71
2022/02/22 06:38:11;;;;;;;17.63;2.92;;;;;;;3.45;75.05;99686.63;10305215;28;20042;-72
2022/02/22 06:43:13;;;;;;;14.30;2.95;;;;;;;3.35;75.43;99695.38;10302859;28;20130;-72
2022/02/22 06:48:15;;;;;;;23.50;3.00;;;;;;;3.42;74.92;99712.66;10302369;28;20149;-73
2022/02/22 06:53:17;;;;;;;17.08;2.95;;;;;;;3.44;74.81;99710.91;10284685;28;20106;-72
2022/02/22 06:58:19;;;;;;;15.07;3.92;;;;;;;3.84;73.73;99716.59;10287020;28;20485;-72
2022/02/22 07:03:21;;;;;;;13.38;2.85;;;;;;;3.78;73.81;99703.69;10269782;28;20079;-72
2022/02/22 07:08:23;;;;;;;14.35;2.50;;;;;;;3.75;72.50;99725.34;10302478;28;20094;-72
2022/02/22 07:13:25;;;;;;;23.10;4.13;;;;;;;3.70;73.47;99736.69;10303047;28;20233;-73
2022/02/22 07:18:26;;;;;;;13.15;2.38;;;;;;;3.79;73.19;99734.84;10285877;28;20042;-72
2022/02/22 07:23:28;;;;;;;11.73;2.75;;;;;;;3.74;73.36;99744.44;10286370;28;20139;-72
2022/02/22 07:28:30;;;;;;;16.45;4.05;;;;;;;3.92;72.94;99759.00;10269021;28;20043;-72
2022/02/22 07:33:33;;;;;;;18.92;3.17;;;;;;;3.86;74.01;99759.06;10302422;28;20396;-72
2022/02/22 07:38:34;;;;;;;17.83;2.40;;;;;;;3.87;74.18;99758.19;10284484;28;20146;-72
2022/02/22 07:43:36;;;;;;;16.02;2.30;;;;;;;3.96;73.79;99765.91;10302785;28;20070;-72
2022/02/22 07:48:38;;;;;;;12.07;2.58;;;;;;;3.89;73.76;99772.03;10269748;28;20050;-72
2022/02/22 07:53:46;;;;;;;14.63;3.42;;;;;;;3.75;74.32;99771.28;10301392;28;20153;-72
2022/02/22 07:58:48;;;;;;;11.02;3.15;;;;;;;4.05;72.64;99778.81;10283030;28;20354;-73
2022/02/22 08:03:49;;;;;;;13.50;4.20;;;;;;;4.14;71.70;99792.63;10283276;28;20157;-73
2022/02/22 08:08:51;;;;;;;15.75;2.67;;;;;;;4.22;71.10;99803.81;10282148;28;20043;-72
2022/02/22 08:13:53;;;;;;;16.17;2.75;;;;;;;4.16;71.47;99814.25;10281664;28;20494;-72
2022/02/22 08:18:56;;;;;;;13.27;3.38;;;;;;;4.02;71.25;99822.19;10281770;28;20094;-71
2022/02/22 08:23:57;;;;;;;16.88;3.08;;;;;;;4.00;71.33;99837.81;10280916;28;20054;-73
2022/02/22 08:29:10;;;;;;;14.57;3.28;;;;;;;4.26;69.83;99842.81;10300640;28;20046;-73
2022/02/22 08:34:11;;;;;;;18.67;4.10;;;;;;;4.22;70.35;99858.47;10281438;28;20043;-72
2022/02/22 08:39:13;;;;;;;18.63;3.15;;;;;;;4.15;70.70;99868.03;10308009;23;20054;-71
2022/02/22 08:44:15;;;;;;;26.65;4.18;;;;;;;4.22;70.29;99872.31;10294483;28;20117;-72
2022/02/22 08:49:21;;;;;;;21.70;4.43;;;;;;;4.33;69.91;99879.16;10295116;28;20094;-71
2022/02/22 08:54:26;;;;;;;18.45;3.70;;;;;;;4.52;69.64;99884.19;10276683;28;20041;-69
2022/02/22 08:59:27;;;;;;;22.10;3.33;;;;;;;4.59;69.25;99881.53;10294038;28;20452;-69
2022/02/22 09:04:29;;;;;;;18.05;3.92;;;;;;;4.59;68.51;99897.16;10294546;28;20050;-69
2022/02/22 09:09:32;;;;;;;23.73;3.90;;;;;;;4.77;69.17;99897.81;10292503;28;20043;-69
2022/02/22 09:14:34;;;;;;;27.65;4.13;;;;;;;4.81;67.77;99901.25;10293547;28;20054;-68
2022/02/22 09:19:36;;;;;;;15.73;3.53;;;;;;;4.74;68.17;99910.03;10293736;28;20126;-68
2022/02/22 09:24:40;;;;;;;21.35;3.15;;;;;;;4.70;67.73;99909.19;10293233;28;20101;-70
2022/02/22 09:29:42;;;;;;;18.60;4.13;;;;;;;4.72;66.61;99923.03;10293005;28;20047;-70
2022/02/22 09:34:44;;;;;;;21.00;4.45;;;;;;;4.85;66.57;99930.75;10277024;28;20129;-71
2022/02/22 09:39:46;;;;;;;13.30;2.85;;;;;;;4.88;66.95;99933.31;10293664;28;20039;-71
2022/02/22 09:44:47;;;;;;;13.55;2.95;;;;;;;5.05;64.78;99939.22;10293871;28;20134;-71
2022/02/22 09:49:49;;;;;;;15.55;3.40;;;;;;;5.04;64.57;99953.09;10293566;28;20057;-71
2022/02/22 09:54:51;;;;;;;19.35;3.97;;;;;;;5.24;65.15;99960.72;10292856;28;20101;-73
2022/02/22 09:59:53;;;;;;;14.45;3.50;;;;;;;5.12;63.84;99953.03;10293759;28;20427;-71
2022/02/22 10:04:55;;;;;;;17.92;3.50;;;;;;;5.01;64.32;99946.19;10258895;28;20051;-72
2022/02/22 10:10:01;;;;;;;13.85;2.60;;;;;;;5.06;63.80;99957.44;10297017;28;20105;-72
2022/02/22 10:15:06;;;;;;;10.27;2.67;;;;;;;4.96;65.42;99966.22;10299815;28;20043;-71
2022/02/22 10:20:12;;;;;;;18.38;3.25;;;;;;;5.00;65.04;99977.44;10282257;28;20042;-71
2022/02/22 10:25:25;;;;;;;13.02;3.13;;;;;;;4.99;64.79;99971.38;10283412;28;20051;-71
2022/02/22 10:30:39;;;;;;;12.15;3.00;;;;;;;5.10;62.96;99980.84;10299178;28;20385;-70
2022/02/22 10:35:48;;;;;;;19.80;3.78;;;;;;;5.00;64.17;99977.44;10282025;28;20492;-71
2022/02/22 10:40:57;;;;;;;16.23;3.08;;;;;;;4.99;63.51;99980.94;10299036;28;20627;-70
2022/02/22 10:46:08;;;;;;;17.90;3.50;;;;;;;5.04;63.30;99989.56;10282656;28;20121;-72
2022/02/22 10:51:16;;;;;;;16.58;3.67;;;;;;;5.20;64.41;99992.91;10282514;28;20047;-71
2022/02/22 10:56:18;;;;;;;22.45;4.00;;;;;;;5.36;62.56;100002.28;10300263;28;20081;-72
2022/02/22 11:01:26;;;;;;;18.67;4.68;;;;;;;5.70;62.70;99997.50;10280329;28;20106;-72
2022/02/22 11:06:28;;;;;;;17.20;3.08;;;;;;;5.72;62.57;100002.72;10298497;28;20106;-72
2022/02/22 11:11:32;;;;;;;16.48;2.72;;;;;;;5.93;61.80;100019.88;10297691;28;20053;-71
2022/02/22 11:16:48;;;;;;;15.73;3.88;;;;;;;5.98;60.88;100032.00;10279822;28;20053;-71
2022/02/22 11:22:08;;;;;;;19.02;3.40;;;;;;;5.73;60.77;100022.72;10296642;28;20046;-71
2022/02/22 11:27:30;;;;;;;18.17;3.45;;;;;;;5.94;61.22;100037.28;10263229;28;20062;-71
2022/02/22 11:32:38;;;;;;;19.38;2.67;;;;;;;6.10;54.96;100024.88;10279031;28;20038;-71
2022/02/22 11:37:39;;;;;;;15.73;2.83;;;;;;;6.22;56.43;100030.78;10296277;28;20065;-70
2022/02/22 11:42:41;;;;;;;26.90;3.97;;;;;;;6.07;57.74;100037.09;10297398;28;20047;-73
2022/02/22 11:47:43;;;;;;;15.73;3.88;;;;;;;6.02;59.05;100033.69;10279764;28;20102;-71
2022/02/22 11:52:51;;;;;;;12.05;3.90;;;;;;;6.06;58.32;100032.75;10295749;28;20464;-71
2022/02/22 11:57:54;;;;;;;17.13;3.25;;;;;;;6.67;56.92;100036.19;10279122;28;20053;-71
2022/02/22 12:03:05;;;;;;;13.38;3.90;;;;;;;6.72;56.58;100030.91;10296877;28;20051;-71
2022/02/22 12:08:16;;;;;;;17.10;4.63;;;;;;;6.33;56.70;100041.09;10277733;28;20057;-72
2022/02/22 12:13:21;;;;;;;18.20;3.13;;;;;;;6.21;55.28;100036.91;10295316;28;20050;-71
2022/02/22 12:18:27;;;;;;;12.73;3.65;;;;;;;6.60;55.45;100054.59;10294074;28;20047;-71
2022/02/22 12:23:29;;;;;;;14.80;3.67;;;;;;;6.86;53.72;100035.91;10276802;28;20074;-71
2022/02/22 12:28:49;;;;;;;15.70;3.70;;;;;;;6.89;53.40;100038.47;10294508;28;20046;-71
2022/02/22 12:33:52;;;;;;;6.80;1.90;;;;;;;6.86;50.62;100043.72;10294249;28;20051;-71
2022/02/22 12:38:58;;;;;;;12.82;5.78;;;;;;;6.63;52.61;100062.38;10294353;28;20420;-71
2022/02/22 12:44:00;;;;;;;17.67;6.22;;;;;;;6.67;53.11;100062.31;10277154;28;20054;-71
2022/02/22 12:49:06;;;;;;;9.73;3.20;;;;;;;6.81;50.62;100069.94;10293737;28;20500;-71
2022/02/22 12:54:17;;;;;;;17.25;4.20;;;;;;;6.65;51.54;100073.69;10293535;28;20038;-71
2022/02/22 12:59:24;;;;;;;27.40;14.38;;;;;;;6.37;53.73;100066.25;10276892;28;20053;-71
2022/02/22 13:04:34;;;;;;;13.65;2.95;;;;;;;6.44;53.25;100083.56;10277169;28;20394;-71
2022/02/22 13:09:37;;;;;;;19.20;10.27;;;;;;;6.48;54.15;100089.59;10293246;28;20043;-71
2022/02/22 13:14:40;;;;;;;10.07;2.67;;;;;;;6.68;51.78;100087.53;10292833;28;20547;-71
2022/02/22 13:19:45;;;;;;;21.63;3.17;;;;;;;6.48;51.88;100082.63;10275772;28;20058;-71
2022/02/22 13:24:59;;;;;;;11.68;2.80;;;;;;;6.60;51.09;100085.94;10293258;28;20420;-71
2022/02/22 13:30:10;;;;;;;7.35;2.60;;;;;;;6.48;51.96;100073.94;10291156;28;20043;-70
2022/02/22 13:35:21;;;;;;;10.68;2.85;;;;;;;6.50;52.14;100074.75;10260335;28;20046;-70
2022/02/22 13:40:42;;;;;;;14.40;2.47;;;;;;;6.50;51.93;100075.63;10275506;28;20098;-71
2022/02/22 13:45:44;;;;;;;7.13;2.47;;;;;;;6.46;49.06;100073.97;10299940;28;20093;-71
2022/02/22 13:50:45;;;;;;;11.68;1.90;;;;;;;6.31;48.75;100082.84;10300646;28;20050;-70
2022/02/22 13:55:51;;;;;;;7.75;2.03;;;;;;;6.20;50.15;100083.91;10300577;28;20054;-71
2022/02/22 14:00:58;;;;;;;11.68;3.08;;;;;;;6.40;50.85;100078.41;10282718;28;20449;-70
2022/02/22 14:06:04;;;;;;;11.18;2.70;;;;;;;6.49;50.36;100079.13;10282872;28;20043;-70
2022/02/22 14:11:05;;;;;;;11.45;3.30;;;;;;;6.43;50.21;100074.00;10299676;28;20043;-70
2022/02/22 14:16:07;;;;;;;9.57;2.38;;;;;;;6.53;49.65;100062.53;10282469;28;20076;-71
2022/02/22 14:21:08;;;;;;;7.32;2.20;;;;;;;6.48;50.31;100076.56;10299486;28;20153;-70
2022/02/22 14:26:10;;;;;;;12.20;1.80;;;;;;;6.51;49.48;100076.50;10300039;28;20042;-70
2022/02/22 14:31:12;;;;;;;8.07;2.15;;;;;;;6.67;50.64;100083.22;10297241;28;20408;-71
2022/02/22 14:36:19;;;;;;;12.43;2.42;;;;;;;6.69;51.29;100072.75;10297207;23;20058;-69
2022/02/22 14:41:21;;;;;;;13.93;2.35;;;;;;;6.78;51.18;100076.09;10244370;29;20055;-70
2022/02/22 14:46:22;;;;;;;12.13;3.00;;;;;;;6.80;52.16;100068.22;10262148;29;20055;-70
2022/02/22 14:51:25;;;;;;;11.65;2.00;;;;;;;6.76;52.74;100066.53;10262032;29;20047;-71
2022/02/22 14:56:27;;;;;;;10.30;2.63;;;;;;;6.58;54.13;100065.94;10244493;29;20048;-70
2022/02/22 15:01:29;;;;;;;14.43;2.67;;;;;;;6.71;54.28;100050.06;10261712;29;20046;-70
2022/02/22 15:06:31;;;;;;;9.75;2.65;;;;;;;6.77;54.08;100045.63;10262033;29;20118;-70
2022/02/22 15:11:32;;;;;;;13.45;2.42;;;;;;;6.66;55.52;100038.84;10244914;29;20047;-70
2022/02/22 15:16:40;;;;;;;15.55;2.15;;;;;;;6.63;54.19;100050.19;10228665;29;20058;-70
2022/02/22 15:21:41;;;;;;;7.40;2.22;;;;;;;6.61;54.31;100070.25;10243365;29;20039;-71
2022/02/22 15:26:48;;;;;;;8.00;2.20;;;;;;;6.41;54.38;100057.47;10260351;29;20054;-71
2022/02/22 15:31:51;;;;;;;11.75;2.13;;;;;;;6.57;53.90;100045.06;10259623;29;20440;-70
2022/02/22 15:36:52;;;;;;;9.10;2.22;;;;;;;6.31;54.99;100027.19;10259213;29;20054;-70
2022/02/22 15:41:54;;;;;;;9.02;1.90;;;;;;;6.35;55.28;100009.72;10259223;29;20047;-69
2022/02/22 15:46:57;;;;;;;10.60;2.03;;;;;;;6.42;54.62;99996.56;10241158;29;20118;-70
2022/02/22 15:51:59;;;;;;;10.20;2.28;;;;;;;6.27;54.34;99988.94;10258936;29;20067;-70
2022/02/22 15:57:02;;;;;;;7.07;2.13;;;;;;;6.17;55.39;99977.78;10240825;29;20054;-70
2022/02/22 16:02:05;;;;;;;9.05;2.17;;;;;;;6.13;54.92;99983.94;10259502;29;20416;-71
2022/02/22 16:07:09;;;;;;;8.32;1.73;;;;;;;6.24;54.00;99978.53;10258348;28;20049;-70
2022/02/22 16:12:11;;;;;;;8.68;1.92;;;;;;;6.19;54.21;99975.16;10257988;29;20055;-71
2022/02/22 16:17:13;;;;;;;9.20;2.13;;;;;;;6.12;55.58;99977.00;10240303;29;20055;-72
2022/02/22 16:22:15;;;;;;;17.50;2.95;;;;;;;5.98;55.41;99992.84;10257696;29;20043;-71
2022/02/22 16:27:17;;;;;;;7.55;2.03;;;;;;;5.94;55.43;99988.56;10241761;29;20086;-70
2022/02/22 16:32:25;;;;;;;11.65;2.55;;;;;;;6.15;54.98;99989.13;10225368;29;20051;-70
2022/02/22 16:37:27;;;;;;;7.03;2.05;;;;;;;6.06;55.43;99988.41;10241163;29;20524;-70
2022/02/22 16:42:29;;;;;;;7.63;2.17;;;;;;;6.12;55.07;99983.97;10258515;29;20047;-71
2022/02/22 16:47:30;;;;;;;6.47;1.80;;;;;;;6.01;55.84;99955.41;10240777;29;20106;-70
2022/02/22 16:52:34;;;;;;;6.05;2.33;;;;;;;6.04;54.80;99947.53;10257680;29;20126;-70
2022/02/22 16:57:37;;;;;;;7.80;2.42;;;;;;;5.91;55.52;99940.75;10257534;29;20101;-70
2022/02/22 17:02:38;;;;;;;9.57;2.05;;;;;;;6.11;55.26;99925.69;10256924;29;20047;-70
2022/02/22 17:07:43;;;;;;;18.17;2.88;;;;;;;6.22;53.93;99928.97;10239654;29;20047;-70
2022/02/22 17:12:45;;;;;;;9.35;2.30;;;;;;;6.22;54.50;99923.75;10257236;29;20055;-72
2022/02/22 17:17:47;;;;;;;8.90;3.45;;;;;;;6.02;55.47;99921.47;10261066;28;20044;-70
2022/02/22 17:22:48;;;;;;;7.63;2.47;;;;;;;6.02;55.31;99926.69;10247861;29;20051;-70
2022/02/22 17:27:50;;;;;;;9.07;1.95;;;;;;;6.24;54.36;99915.91;10247510;29;20073;-71
2022/02/22 17:32:51;;;;;;;7.93;2.67;;;;;;;6.25;55.00;99900.22;10249102;29;20046;-70
2022/02/22 17:37:53;;;;;;;9.50;1.95;;;;;;;6.14;54.78;99891.69;10264410;28;20039;-70
2022/02/22 17:42:54;;;;;;;7.32;2.00;;;;;;;6.22;54.82;99888.97;10263808;29;20047;-70
2022/02/22 17:47:56;;;;;;;7.68;1.65;;;;;;;6.12;55.76;99900.47;10262712;29;20061;-72
2022/02/22 17:52:58;;;;;;;9.75;2.17;;;;;;;6.22;55.45;99891.59;10263178;29;20505;-71
2022/02/22 17:58:00;;;;;;;4.82;1.58;;;;;;;6.25;55.95;99888.94;10263322;29;20047;-71
2022/02/22 18:03:01;;;;;;;8.23;2.20;;;;;;;6.21;56.57;99887.25;10264195;29;20050;-71
2022/02/22 18:08:03;;;;;;;6.28;1.75;;;;;;;6.28;56.81;99878.41;10245320;29;20482;-70
2022/02/22 18:13:05;;;;;;;9.23;2.38;;;;;;;6.29;57.60;99872.34;10245776;29;20191;-70
2022/02/22 18:18:06;;;;;;;8.07;1.83;;;;;;;6.16;58.29;99865.59;10264101;29;20039;-71
2022/02/22 18:23:09;;;;;;;7.00;2.25;;;;;;;6.20;58.46;99856.84;10262050;29;20071;-71
2022/02/22 18:28:11;;;;;;;6.55;1.67;;;;;;;6.13;60.62;99858.66;10243971;28;20110;-71
2022/02/22 18:33:12;;;;;;;7.00;1.70;;;;;;;6.07;62.54;99843.13;10262112;29;20047;-70
2022/02/22 18:38:15;;;;;;;5.63;1.58;;;;;;;6.02;63.04;99852.75;10261771;29;20126;-71
2022/02/22 18:43:16;;;;;;;7.88;1.60;;;;;;;6.03;63.47;99850.13;10244397;29;20053;-72
2022/02/22 18:48:18;;;;;;;5.47;1.50;;;;;;;6.05;64.25;99834.44;10260524;29;20046;-71
2022/02/22 18:53:19;;;;;;;7.55;2.25;;;;;;;6.04;64.93;99825.75;10260418;29;20101;-71
2022/02/22 18:58:21;;;;;;;5.80;1.45;;;;;;;5.95;66.65;99832.88;10260783;29;20053;-71
2022/02/22 19:03:23;;;;;;;5.47;1.52;;;;;;;5.89;68.12;99823.38;10260600;29;20047;-70
2022/02/22 19:08:27;;;;;;;9.18;1.77;;;;;;;5.66;71.55;99828.94;10260978;29;20047;-71
2022/02/22 19:13:28;;;;;;;8.50;1.80;;;;;;;5.49;72.60;99816.16;10261475;29;20049;-72
2022/02/22 19:18:30;;;;;;;10.13;2.55;;;;;;;5.37;74.99;99810.25;10261727;29;20039;-72
2022/02/22 19:23:32;;;;;;;5.65;1.75;;;;;;;5.37;74.73;99799.84;10262765;29;20058;-71
2022/02/22 19:28:34;;;;;;;4.95;2.00;;;;;;;5.39;74.64;99792.84;10242755;29;20537;-71
2022/02/22 19:33:36;;;;;;;5.53;2.03;;;;;;;5.48;74.65;99777.06;10243018;29;20058;-71
2022/02/22 19:38:38;;;;;;;7.93;2.38;;;;;;;5.53;73.81;99777.84;10259055;28;20063;-70
2022/02/22 19:43:40;;;;;;;4.70;1.60;;;;;;;5.47;73.93;99775.34;10241637;29;20138;-71
2022/02/22 19:48:42;;;;;;;6.43;1.55;;;;;;;5.41;74.33;99768.50;10241437;29;20480;-72
2022/02/22 19:53:43;;;;;;;5.88;2.03;;;;;;;5.53;74.10;99764.81;10241580;29;20126;-71
2022/02/22 19:58:45;;;;;;;4.03;1.70;;;;;;;5.60;73.59;99768.22;10259446;29;20047;-70
2022/02/22 20:03:47;;;;;;;5.55;1.70;;;;;;;5.66;73.39;99755.06;10257036;29;20073;-71
2022/02/22 20:08:51;;;;;;;4.57;1.40;;;;;;;5.84;72.74;99752.13;10257696;29;20039;-70
2022/02/22 20:13:54;;;;;;;5.68;1.83;;;;;;;6.05;71.98;99746.59;10242199;29;20402;-71
2022/02/22 20:18:56;;;;;;;3.70;1.90;;;;;;;6.29;70.89;99728.78;10258112;29;20043;-70
2022/02/22 20:23:58;;;;;;;3.83;1.33;;;;;;;6.36;70.72;99743.41;10257969;29;20086;-71
2022/02/22 20:28:59;;;;;;;4.15;1.20;;;;;;;6.40;70.65;99734.63;10256979;29;20045;-70
2022/02/22 20:34:01;;;;;;;4.45;1.23;;;;;;;6.47;70.84;99712.75;10257422;29;20066;-71
2022/02/22 20:39:04;;;;;;;6.07;1.45;;;;;;;6.58;70.27;99689.84;10308619;23;20061;-80
2022/02/22 20:44:06;;;;;;;3.17;1.10;;;;;;;6.65;70.54;99702.81;10327706;28;20034;-79
2022/02/22 20:49:08;;;;;;;3.13;0.90;;;;;;;6.76;70.13;99706.88;10312400;28;20389;-81
2022/02/22 20:54:09;;;;;;;2.55;1.13;;;;;;;6.88;70.24;99694.47;10306656;28;20114;-80
2022/02/22 20:59:11;;;;;;;3.20;1.00;;;;;;;6.82;70.42;99687.63;10318026;28;20047;-80
2022/02/22 21:04:13;;;;;;;3.50;1.02;;;;;;;6.82;70.54;99659.75;10325281;28;20038;-79
2022/02/22 21:09:15;;;;;;;5.10;1.13;;;;;;;6.96;70.16;99661.19;10303223;28;20035;-79
2022/02/22 21:14:17;;;;;;;3.45;1.10;;;;;;;6.94;70.88;99662.97;10317914;28;20043;-80
2022/02/22 21:19:18;;;;;;;3.88;0.95;;;;;;;7.04;70.78;99656.66;10316205;28;20073;-81
2022/02/22 21:24:20;;;;;;;3.10;1.00;;;;;;;7.05;70.80;99659.22;10317959;28;20047;-81
2022/02/22 21:29:22;;;;;;;2.60;1.00;;;;;;;7.11;71.38;99667.81;10309992;28;20524;-81
2022/02/22 21:34:23;;;;;;;4.15;1.13;;;;;;;7.10;72.08;99673.94;10312899;28;20390;-79
2022/02/22 21:39:25;;;;;;;3.72;1.30;;;;;;;7.08;74.00;99667.00;10309737;28;20101;-81
2022/02/22 21:44:26;;;;;;;3.33;1.20;;;;;;;7.01;76.05;99648.88;10312114;28;20034;-81
2022/02/22 21:49:28;;;;;;;2.90;0.98;;;;;;;6.85;79.38;99657.94;10293887;28;20039;-81
2022/02/22 21:54:30;;;;;;;3.35;1.35;;;;;;;6.85;79.88;99650.97;10300248;28;20066;-80
2022/02/22 21:59:32;;;;;;;4.57;1.17;;;;;;;6.94;80.97;99649.91;10338098;28;20113;-80
2022/02/22 22:04:34;;;;;;;4.43;1.45;;;;;;;7.00;80.09;99645.41;10314829;28;20054;-79
2022/02/22 22:09:37;;;;;;;4.38;1.60;;;;;;;7.05;80.06;99646.16;10320212;28;20046;-78
2022/02/22 22:14:38;;;;;;;3.53;1.70;;;;;;;6.98;80.56;99634.13;10338360;28;20107;-79
2022/02/22 22:19:40;;;;;;;3.65;1.38;;;;;;;7.11;79.93;99652.13;10318228;28;20099;-79
2022/02/22 22:24:41;;;;;;;4.93;1.85;;;;;;;7.11;79.89;99644.28;10319132;28;20051;-79
2022/02/22 22:29:46;;;;;;;3.75;1.38;;;;;;;7.01;81.22;99646.25;10335497;28;20039;-80
2022/02/22 22:34:48;;;;;;;2.53;1.67;;;;;;;7.07;81.08;99644.34;10335742;28;20051;-79
2022/02/22 22:39:50;;;;;;;3.50;1.75;;;;;;;7.13;82.07;99642.47;10314139;28;20039;-80
2022/02/22 22:44:52;;;;;;;7.07;1.75;;;;;;;7.05;83.16;99654.00;10338915;28;20257;-79
2022/02/22 22:49:54;;;;;;;3.10;1.33;;;;;;;7.06;83.17;99645.25;10321593;28;20066;-78
2022/02/22 22:54:56;;;;;;;3.10;1.30;;;;;;;7.01;83.78;99644.50;10321852;28;20051;-79
2022/02/22 22:59:57;;;;;;;3.65;1.52;;;;;;;6.99;83.87;99650.66;10339020;28;20042;-79
2022/02/22 23:04:59;;;;;;;4.07;1.20;;;;;;;6.97;85.40;99663.75;10320283;28;20070;-79
2022/02/22 23:13:58;;;;;;;3.30;1.30;;;;;;;7.03;84.49;99662.75;10336578;28;20047;-79
2022/02/22 23:15:28;;;;;;;4.05;1.30;;;;;;;7.01;84.88;99664.56;10321580;28;20035;-79
2022/02/22 23:20:30;;;;;;;3.63;1.20;;;;;;;6.99;85.72;99680.25;10336424;28;20102;-79
2022/02/22 23:25:31;;;;;;;3.38;1.30;;;;;;;6.97;85.53;99668.97;10317028;28;20051;-79
2022/02/22 23:30:38;;;;;;;2.85;1.58;;;;;;;7.02;85.77;99689.78;10326362;28;20043;-80
2022/02/22 23:35:40;;;;;;;2.15;0.90;;;;;;;7.00;85.37;99697.66;10332861;28;20058;-81